sensor_id;sensor_type;location;lat;lon;timestamp;temperature;humidity
64654;DHT22;51065;48.884;12.598;2023-05-10T00:00:07;13.20;99.90
64654;DHT22;51065;48.884;12.598;2023-05-10T00:02:34;13.10;99.90
64654;DHT22;51065;48.884;12.598;2023-05-10T00:05:00;13.10;99.90
64654;DHT22;51065;48.884;12.598;2023-05-10T00:07:25;13.00;99.90
64654;DHT22;51065;48.884;12.598;2023-05-10T00:09:51;12.90;99.90
64654;DHT22;51065;48.884;12.598;2023-05-10T00:12:16;12.90;99.90
64654;DHT22;51065;48.884;12.598;2023-05-10T00:14:42;12.80;99.90
64654;DHT22;51065;48.884;12.598;2023-05-10T00:17:08;12.70;99.90
64654;DHT22;51065;48.884;12.598;2023-05-10T00:19:33;12.70;99.90
64654;DHT22;51065;48.884;12.598;2023-05-10T00:21:59;12.60;99.90
64654;DHT22;51065;48.884;12.598;2023-05-10T00:24:24;12.50;99.90
64654;DHT22;51065;48.884;12.598;2023-05-10T00:26:50;12.50;99.90
64654;DHT22;51065;48.884;12.598;2023-05-10T00:29:16;12.60;99.90
64654;DHT22;51065;48.884;12.598;2023-05-10T00:31:41;12.60;99.90
64654;DHT22;51065;48.884;12.598;2023-05-10T00:34:07;12.60;99.90
64654;DHT22;51065;48.884;12.598;2023-05-10T00:36:32;12.60;99.90
64654;DHT22;51065;48.884;12.598;2023-05-10T00:38:58;12.70;99.90
64654;DHT22;51065;48.884;12.598;2023-05-10T00:41:23;12.70;99.90
64654;DHT22;51065;48.884;12.598;2023-05-10T00:43:49;12.60;99.90
64654;DHT22;51065;48.884;12.598;2023-05-10T00:46:15;12.60;99.90
64654;DHT22;51065;48.884;12.598;2023-05-10T00:48:42;12.70;99.90
64654;DHT22;51065;48.884;12.598;2023-05-10T00:51:07;12.70;99.90
64654;DHT22;51065;48.884;12.598;2023-05-10T00:53:34;12.70;99.90
64654;DHT22;51065;48.884;12.598;2023-05-10T00:56:00;12.70;99.90
64654;DHT22;51065;48.884;12.598;2023-05-10T00:58:27;12.70;99.90
64654;DHT22;51065;48.884;12.598;2023-05-10T01:00:55;12.70;99.90
64654;DHT22;51065;48.884;12.598;2023-05-10T01:03:22;12.70;99.90
64654;DHT22;51065;48.884;12.598;2023-05-10T01:05:47;12.70;99.90
64654;DHT22;51065;48.884;12.598;2023-05-10T01:08:13;12.70;99.90
64654;DHT22;51065;48.884;12.598;2023-05-10T01:10:39;12.70;99.90
64654;DHT22;51065;48.884;12.598;2023-05-10T01:13:05;12.70;99.90
64654;DHT22;51065;48.884;12.598;2023-05-10T01:15:31;12.80;99.90
64654;DHT22;51065;48.884;12.598;2023-05-10T01:17:57;12.90;99.90
64654;DHT22;51065;48.884;12.598;2023-05-10T01:20:23;12.90;99.90
64654;DHT22;51065;48.884;12.598;2023-05-10T01:23:55;12.90;99.90
64654;DHT22;51065;48.884;12.598;2023-05-10T01:34:07;12.80;99.90
64654;DHT22;51065;48.884;12.598;2023-05-10T01:36:45;12.80;99.90
64654;DHT22;51065;48.884;12.598;2023-05-10T01:42:01;12.90;99.90
64654;DHT22;51065;48.884;12.598;2023-05-10T01:44:37;12.90;99.90
64654;DHT22;51065;48.884;12.598;2023-05-10T01:47:05;12.90;99.90
64654;DHT22;51065;48.884;12.598;2023-05-10T01:49:36;12.90;99.90
64654;DHT22;51065;48.884;12.598;2023-05-10T01:52:12;12.90;99.90
64654;DHT22;51065;48.884;12.598;2023-05-10T01:54:42;13.00;99.90
64654;DHT22;51065;48.884;12.598;2023-05-10T01:57:11;13.00;99.90
64654;DHT22;51065;48.884;12.598;2023-05-10T01:59:40;13.00;99.90
64654;DHT22;51065;48.884;12.598;2023-05-10T02:02:08;13.00;99.90
64654;DHT22;51065;48.884;12.598;2023-05-10T02:04:38;13.00;99.90
64654;DHT22;51065;48.884;12.598;2023-05-10T02:07:06;13.00;99.90
64654;DHT22;51065;48.884;12.598;2023-05-10T02:09:33;13.00;99.90
64654;DHT22;51065;48.884;12.598;2023-05-10T02:12:02;13.00;99.90
64654;DHT22;51065;48.884;12.598;2023-05-10T02:14:32;13.00;99.90
64654;DHT22;51065;48.884;12.598;2023-05-10T02:16:59;13.00;99.90
64654;DHT22;51065;48.884;12.598;2023-05-10T02:19:26;13.00;99.90
64654;DHT22;51065;48.884;12.598;2023-05-10T02:21:54;13.00;99.90
64654;DHT22;51065;48.884;12.598;2023-05-10T02:24:22;12.90;99.90
64654;DHT22;51065;48.884;12.598;2023-05-10T02:26:50;13.00;99.90
64654;DHT22;51065;48.884;12.598;2023-05-10T02:29:17;13.00;99.90
64654;DHT22;51065;48.884;12.598;2023-05-10T02:31:44;12.90;99.90
64654;DHT22;51065;48.884;12.598;2023-05-10T02:34:11;13.00;99.90
64654;DHT22;51065;48.884;12.598;2023-05-10T02:36:38;13.00;99.90
64654;DHT22;51065;48.884;12.598;2023-05-10T02:39:06;12.90;99.90
64654;DHT22;51065;48.884;12.598;2023-05-10T02:41:36;13.00;99.90
64654;DHT22;51065;48.884;12.598;2023-05-10T02:44:02;12.90;99.90
64654;DHT22;51065;48.884;12.598;2023-05-10T02:46:29;12.90;99.90
64654;DHT22;51065;48.884;12.598;2023-05-10T02:48:54;12.90;99.90
64654;DHT22;51065;48.884;12.598;2023-05-10T02:51:21;12.80;99.90
64654;DHT22;51065;48.884;12.598;2023-05-10T02:53:50;12.90;99.90
64654;DHT22;51065;48.884;12.598;2023-05-10T02:56:28;12.80;99.90
64654;DHT22;51065;48.884;12.598;2023-05-10T02:58:55;12.80;99.90
64654;DHT22;51065;48.884;12.598;2023-05-10T03:01:20;12.80;99.90
64654;DHT22;51065;48.884;12.598;2023-05-10T03:03:46;12.80;99.90
64654;DHT22;51065;48.884;12.598;2023-05-10T03:06:12;12.80;99.90
64654;DHT22;51065;48.884;12.598;2023-05-10T03:08:37;12.70;99.90
64654;DHT22;51065;48.884;12.598;2023-05-10T03:11:36;12.80;99.90
64654;DHT22;51065;48.884;12.598;2023-05-10T03:16:58;12.70;99.90
64654;DHT22;51065;48.884;12.598;2023-05-10T03:19:43;12.70;99.90
64654;DHT22;51065;48.884;12.598;2023-05-10T03:22:12;12.60;99.90
64654;DHT22;51065;48.884;12.598;2023-05-10T03:24:41;12.60;99.90
64654;DHT22;51065;48.884;12.598;2023-05-10T03:27:08;12.60;99.90
64654;DHT22;51065;48.884;12.598;2023-05-10T03:29:34;12.50;99.90
64654;DHT22;51065;48.884;12.598;2023-05-10T03:32:00;12.40;99.90
64654;DHT22;51065;48.884;12.598;2023-05-10T03:34:26;12.40;99.90
64654;DHT22;51065;48.884;12.598;2023-05-10T03:36:52;12.30;99.90
64654;DHT22;51065;48.884;12.598;2023-05-10T03:39:17;12.20;99.90
64654;DHT22;51065;48.884;12.598;2023-05-10T03:41:43;12.20;99.90
64654;DHT22;51065;48.884;12.598;2023-05-10T03:44:09;12.10;99.90
64654;DHT22;51065;48.884;12.598;2023-05-10T03:46:34;12.00;99.90
64654;DHT22;51065;48.884;12.598;2023-05-10T03:49:00;11.90;99.90
64654;DHT22;51065;48.884;12.598;2023-05-10T03:51:25;11.90;99.90
64654;DHT22;51065;48.884;12.598;2023-05-10T03:53:56;11.80;99.90
64654;DHT22;51065;48.884;12.598;2023-05-10T03:56:22;11.70;99.90
64654;DHT22;51065;48.884;12.598;2023-05-10T03:58:47;11.60;99.90
64654;DHT22;51065;48.884;12.598;2023-05-10T04:01:13;11.40;99.90
64654;DHT22;51065;48.884;12.598;2023-05-10T04:03:38;11.20;99.90
64654;DHT22;51065;48.884;12.598;2023-05-10T04:06:04;11.10;99.90
64654;DHT22;51065;48.884;12.598;2023-05-10T04:08:30;11.00;99.90
64654;DHT22;51065;48.884;12.598;2023-05-10T04:11:09;10.90;99.90
64654;DHT22;51065;48.884;12.598;2023-05-10T04:13:35;10.80;99.90
64654;DHT22;51065;48.884;12.598;2023-05-10T04:16:01;10.80;99.90
64654;DHT22;51065;48.884;12.598;2023-05-10T04:18:27;10.80;99.90
64654;DHT22;51065;48.884;12.598;2023-05-10T04:20:52;10.70;99.90
64654;DHT22;51065;48.884;12.598;2023-05-10T04:23:18;10.70;99.90
64654;DHT22;51065;48.884;12.598;2023-05-10T04:25:43;10.70;99.90
64654;DHT22;51065;48.884;12.598;2023-05-10T04:28:09;10.60;99.90
64654;DHT22;51065;48.884;12.598;2023-05-10T04:30:35;10.60;99.90
64654;DHT22;51065;48.884;12.598;2023-05-10T04:33:00;10.50;99.90
64654;DHT22;51065;48.884;12.598;2023-05-10T04:35:27;10.60;99.90
64654;DHT22;51065;48.884;12.598;2023-05-10T04:37:53;10.50;99.90
64654;DHT22;51065;48.884;12.598;2023-05-10T04:40:19;10.50;99.90
64654;DHT22;51065;48.884;12.598;2023-05-10T04:42:45;10.50;99.90
64654;DHT22;51065;48.884;12.598;2023-05-10T04:45:10;10.50;99.90
64654;DHT22;51065;48.884;12.598;2023-05-10T04:47:36;10.50;99.90
64654;DHT22;51065;48.884;12.598;2023-05-10T04:50:05;10.50;99.90
64654;DHT22;51065;48.884;12.598;2023-05-10T04:52:31;10.40;99.90
64654;DHT22;51065;48.884;12.598;2023-05-10T04:54:57;10.40;99.90
64654;DHT22;51065;48.884;12.598;2023-05-10T04:57:23;10.40;99.90
64654;DHT22;51065;48.884;12.598;2023-05-10T04:59:48;10.40;99.90
64654;DHT22;51065;48.884;12.598;2023-05-10T05:02:14;10.40;99.90
64654;DHT22;51065;48.884;12.598;2023-05-10T05:04:39;10.40;99.90
64654;DHT22;51065;48.884;12.598;2023-05-10T05:07:05;10.40;99.90
64654;DHT22;51065;48.884;12.598;2023-05-10T05:09:30;10.40;99.90
64654;DHT22;51065;48.884;12.598;2023-05-10T05:11:57;10.50;99.90
64654;DHT22;51065;48.884;12.598;2023-05-10T05:14:23;10.50;99.90
64654;DHT22;51065;48.884;12.598;2023-05-10T05:16:50;10.40;99.90
64654;DHT22;51065;48.884;12.598;2023-05-10T05:19:16;10.40;99.90
64654;DHT22;51065;48.884;12.598;2023-05-10T05:21:42;10.40;99.90
64654;DHT22;51065;48.884;12.598;2023-05-10T05:24:07;10.50;99.90
64654;DHT22;51065;48.884;12.598;2023-05-10T05:26:33;10.50;99.90
64654;DHT22;51065;48.884;12.598;2023-05-10T05:28:59;10.50;99.90
64654;DHT22;51065;48.884;12.598;2023-05-10T05:31:30;10.50;99.90
64654;DHT22;51065;48.884;12.598;2023-05-10T05:33:56;10.60;99.90
64654;DHT22;51065;48.884;12.598;2023-05-10T05:36:27;10.60;99.90
64654;DHT22;51065;48.884;12.598;2023-05-10T05:38:53;10.60;99.90
64654;DHT22;51065;48.884;12.598;2023-05-10T05:41:18;10.70;99.90
64654;DHT22;51065;48.884;12.598;2023-05-10T05:43:45;10.70;99.90
64654;DHT22;51065;48.884;12.598;2023-05-10T05:46:10;10.70;99.90
64654;DHT22;51065;48.884;12.598;2023-05-10T05:48:36;10.80;99.90
64654;DHT22;51065;48.884;12.598;2023-05-10T05:51:01;10.80;99.90
64654;DHT22;51065;48.884;12.598;2023-05-10T05:53:27;10.80;99.90
64654;DHT22;51065;48.884;12.598;2023-05-10T05:55:58;10.80;99.90
64654;DHT22;51065;48.884;12.598;2023-05-10T05:58:27;10.90;99.90
64654;DHT22;51065;48.884;12.598;2023-05-10T06:00:53;10.90;99.90
64654;DHT22;51065;48.884;12.598;2023-05-10T06:03:19;10.90;99.90
64654;DHT22;51065;48.884;12.598;2023-05-10T06:05:44;10.90;99.90
64654;DHT22;51065;48.884;12.598;2023-05-10T06:08:10;10.90;99.90
64654;DHT22;51065;48.884;12.598;2023-05-10T06:10:36;10.90;99.90
64654;DHT22;51065;48.884;12.598;2023-05-10T06:13:02;10.90;99.90
64654;DHT22;51065;48.884;12.598;2023-05-10T06:15:27;11.00;99.90
64654;DHT22;51065;48.884;12.598;2023-05-10T06:17:53;11.00;99.90
64654;DHT22;51065;48.884;12.598;2023-05-10T06:20:18;11.00;99.90
64654;DHT22;51065;48.884;12.598;2023-05-10T06:22:44;11.00;99.90
64654;DHT22;51065;48.884;12.598;2023-05-10T06:25:10;11.00;99.90
64654;DHT22;51065;48.884;12.598;2023-05-10T06:27:35;11.00;99.90
64654;DHT22;51065;48.884;12.598;2023-05-10T06:30:01;11.00;99.90
64654;DHT22;51065;48.884;12.598;2023-05-10T06:32:28;10.90;99.90
64654;DHT22;51065;48.884;12.598;2023-05-10T06:34:53;10.90;99.90
64654;DHT22;51065;48.884;12.598;2023-05-10T06:37:19;10.90;99.90
64654;DHT22;51065;48.884;12.598;2023-05-10T06:39:44;10.80;99.90
64654;DHT22;51065;48.884;12.598;2023-05-10T06:42:10;10.80;99.90
64654;DHT22;51065;48.884;12.598;2023-05-10T06:44:35;10.80;99.90
64654;DHT22;51065;48.884;12.598;2023-05-10T06:47:01;10.70;99.90
64654;DHT22;51065;48.884;12.598;2023-05-10T06:49:27;10.70;99.90
64654;DHT22;51065;48.884;12.598;2023-05-10T06:51:52;10.70;99.90
64654;DHT22;51065;48.884;12.598;2023-05-10T06:54:18;10.80;99.90
64654;DHT22;51065;48.884;12.598;2023-05-10T06:56:44;10.80;99.90
64654;DHT22;51065;48.884;12.598;2023-05-10T06:59:09;10.90;99.90
64654;DHT22;51065;48.884;12.598;2023-05-10T07:01:35;10.90;99.90
64654;DHT22;51065;48.884;12.598;2023-05-10T07:04:01;10.90;99.90
64654;DHT22;51065;48.884;12.598;2023-05-10T07:06:26;11.10;99.90
64654;DHT22;51065;48.884;12.598;2023-05-10T07:08:52;11.30;99.90
64654;DHT22;51065;48.884;12.598;2023-05-10T07:11:18;11.30;99.90
64654;DHT22;51065;48.884;12.598;2023-05-10T07:13:43;11.40;99.90
64654;DHT22;51065;48.884;12.598;2023-05-10T07:16:11;11.40;99.90
64654;DHT22;51065;48.884;12.598;2023-05-10T07:18:37;11.50;99.90
64654;DHT22;51065;48.884;12.598;2023-05-10T07:21:03;11.60;99.90
64654;DHT22;51065;48.884;12.598;2023-05-10T07:23:28;11.60;99.90
64654;DHT22;51065;48.884;12.598;2023-05-10T07:25:55;11.60;99.90
64654;DHT22;51065;48.884;12.598;2023-05-10T07:28:22;11.60;99.90
64654;DHT22;51065;48.884;12.598;2023-05-10T07:30:48;11.70;99.90
64654;DHT22;51065;48.884;12.598;2023-05-10T07:33:14;11.70;99.90
64654;DHT22;51065;48.884;12.598;2023-05-10T07:35:40;11.70;99.90
64654;DHT22;51065;48.884;12.598;2023-05-10T07:38:05;11.70;99.90
64654;DHT22;51065;48.884;12.598;2023-05-10T07:40:31;11.70;99.90
64654;DHT22;51065;48.884;12.598;2023-05-10T07:42:57;11.60;99.90
64654;DHT22;51065;48.884;12.598;2023-05-10T07:45:23;11.70;99.90
64654;DHT22;51065;48.884;12.598;2023-05-10T07:47:49;11.70;99.90
64654;DHT22;51065;48.884;12.598;2023-05-10T07:50:15;11.80;99.90
64654;DHT22;51065;48.884;12.598;2023-05-10T07:52:41;11.60;99.90
64654;DHT22;51065;48.884;12.598;2023-05-10T07:55:07;11.60;99.90
64654;DHT22;51065;48.884;12.598;2023-05-10T07:57:34;11.60;99.90
64654;DHT22;51065;48.884;12.598;2023-05-10T07:59:59;11.80;99.90
64654;DHT22;51065;48.884;12.598;2023-05-10T08:02:25;11.90;99.90
64654;DHT22;51065;48.884;12.598;2023-05-10T08:04:50;12.00;99.90
64654;DHT22;51065;48.884;12.598;2023-05-10T08:07:17;12.00;99.90
64654;DHT22;51065;48.884;12.598;2023-05-10T08:09:42;12.10;99.90
64654;DHT22;51065;48.884;12.598;2023-05-10T08:12:08;12.20;99.90
64654;DHT22;51065;48.884;12.598;2023-05-10T08:14:33;12.30;99.90
64654;DHT22;51065;48.884;12.598;2023-05-10T08:16:59;12.40;99.90
64654;DHT22;51065;48.884;12.598;2023-05-10T08:19:25;12.50;99.90
64654;DHT22;51065;48.884;12.598;2023-05-10T08:21:50;12.70;99.90
64654;DHT22;51065;48.884;12.598;2023-05-10T08:24:16;12.80;99.90
64654;DHT22;51065;48.884;12.598;2023-05-10T08:26:41;12.90;99.90
64654;DHT22;51065;48.884;12.598;2023-05-10T08:29:07;13.00;99.90
64654;DHT22;51065;48.884;12.598;2023-05-10T08:31:32;12.90;99.90
64654;DHT22;51065;48.884;12.598;2023-05-10T08:33:58;13.10;99.90
64654;DHT22;51065;48.884;12.598;2023-05-10T08:36:24;13.20;99.90
64654;DHT22;51065;48.884;12.598;2023-05-10T08:38:53;13.30;99.90
64654;DHT22;51065;48.884;12.598;2023-05-10T08:41:23;13.30;99.90
64654;DHT22;51065;48.884;12.598;2023-05-10T08:43:54;13.30;99.90
64654;DHT22;51065;48.884;12.598;2023-05-10T08:46:21;13.30;99.90
64654;DHT22;51065;48.884;12.598;2023-05-10T08:48:49;13.50;99.90
64654;DHT22;51065;48.884;12.598;2023-05-10T08:51:18;13.50;99.90
64654;DHT22;51065;48.884;12.598;2023-05-10T08:53:44;13.50;99.90
64654;DHT22;51065;48.884;12.598;2023-05-10T08:56:10;13.60;99.90
64654;DHT22;51065;48.884;12.598;2023-05-10T08:58:36;13.70;99.90
64654;DHT22;51065;48.884;12.598;2023-05-10T09:01:03;13.50;99.90
64654;DHT22;51065;48.884;12.598;2023-05-10T09:03:29;13.40;99.90
64654;DHT22;51065;48.884;12.598;2023-05-10T09:05:55;13.20;99.90
64654;DHT22;51065;48.884;12.598;2023-05-10T09:08:23;13.30;99.90
64654;DHT22;51065;48.884;12.598;2023-05-10T09:10:52;13.50;99.90
64654;DHT22;51065;48.884;12.598;2023-05-10T09:13:19;13.80;99.90
64654;DHT22;51065;48.884;12.598;2023-05-10T09:15:45;13.80;99.90
64654;DHT22;51065;48.884;12.598;2023-05-10T09:18:11;14.10;99.90
64654;DHT22;51065;48.884;12.598;2023-05-10T09:20:37;14.40;99.90
64654;DHT22;51065;48.884;12.598;2023-05-10T09:23:02;14.60;99.90
64654;DHT22;51065;48.884;12.598;2023-05-10T09:25:28;14.80;99.90
64654;DHT22;51065;48.884;12.598;2023-05-10T09:27:54;15.00;99.90
64654;DHT22;51065;48.884;12.598;2023-05-10T09:30:25;15.20;99.90
64654;DHT22;51065;48.884;12.598;2023-05-10T09:32:52;15.50;99.90
64654;DHT22;51065;48.884;12.598;2023-05-10T09:35:20;15.50;99.90
64654;DHT22;51065;48.884;12.598;2023-05-10T09:37:48;15.60;99.90
64654;DHT22;51065;48.884;12.598;2023-05-10T09:40:16;15.40;99.90
64654;DHT22;51065;48.884;12.598;2023-05-10T09:42:59;15.40;99.90
64654;DHT22;51065;48.884;12.598;2023-05-10T09:45:30;15.60;99.90
64654;DHT22;51065;48.884;12.598;2023-05-10T09:47:56;15.90;99.90
64654;DHT22;51065;48.884;12.598;2023-05-10T09:50:22;15.80;99.90
64654;DHT22;51065;48.884;12.598;2023-05-10T09:52:56;15.90;99.90
64654;DHT22;51065;48.884;12.598;2023-05-10T09:55:37;16.00;99.90
64654;DHT22;51065;48.884;12.598;2023-05-10T09:58:03;16.00;99.90
64654;DHT22;51065;48.884;12.598;2023-05-10T10:00:41;15.80;99.90
64654;DHT22;51065;48.884;12.598;2023-05-10T10:03:16;15.70;99.90
64654;DHT22;51065;48.884;12.598;2023-05-10T10:05:43;15.70;99.90
64654;DHT22;51065;48.884;12.598;2023-05-10T10:08:10;16.10;99.90
64654;DHT22;51065;48.884;12.598;2023-05-10T10:10:35;16.50;99.90
64654;DHT22;51065;48.884;12.598;2023-05-10T10:13:02;16.90;99.90
64654;DHT22;51065;48.884;12.598;2023-05-10T10:15:27;16.90;99.90
64654;DHT22;51065;48.884;12.598;2023-05-10T10:17:54;17.40;99.90
64654;DHT22;51065;48.884;12.598;2023-05-10T10:20:21;17.60;99.90
64654;DHT22;51065;48.884;12.598;2023-05-10T10:22:47;17.30;99.90
64654;DHT22;51065;48.884;12.598;2023-05-10T10:25:15;17.30;99.90
64654;DHT22;51065;48.884;12.598;2023-05-10T10:27:49;17.00;99.90
64654;DHT22;51065;48.884;12.598;2023-05-10T10:30:43;17.10;99.90
64654;DHT22;51065;48.884;12.598;2023-05-10T10:35:53;17.60;99.90
64654;DHT22;51065;48.884;12.598;2023-05-10T10:38:20;17.70;99.90
64654;DHT22;51065;48.884;12.598;2023-05-10T10:40:46;17.60;99.90
64654;DHT22;51065;48.884;12.598;2023-05-10T10:43:28;17.90;99.90
64654;DHT22;51065;48.884;12.598;2023-05-10T10:46:16;18.60;99.90
64654;DHT22;51065;48.884;12.598;2023-05-10T10:48:50;18.80;99.90
64654;DHT22;51065;48.884;12.598;2023-05-10T10:51:36;19.40;99.90
64654;DHT22;51065;48.884;12.598;2023-05-10T10:54:11;19.60;99.90
64654;DHT22;51065;48.884;12.598;2023-05-10T10:56:37;20.00;99.90
64654;DHT22;51065;48.884;12.598;2023-05-10T10:59:03;19.70;99.90
64654;DHT22;51065;48.884;12.598;2023-05-10T11:01:33;19.80;99.90
64654;DHT22;51065;48.884;12.598;2023-05-10T11:06:33;19.70;99.90
64654;DHT22;51065;48.884;12.598;2023-05-10T11:09:06;19.70;99.90
64654;DHT22;51065;48.884;12.598;2023-05-10T11:11:31;20.00;99.90
64654;DHT22;51065;48.884;12.598;2023-05-10T11:14:06;20.80;99.90
64654;DHT22;51065;48.884;12.598;2023-05-10T11:16:42;20.90;99.90
64654;DHT22;51065;48.884;12.598;2023-05-10T11:19:11;21.10;99.90
64654;DHT22;51065;48.884;12.598;2023-05-10T11:24:14;20.60;99.90
64654;DHT22;51065;48.884;12.598;2023-05-10T11:26:40;20.30;99.90
64654;DHT22;51065;48.884;12.598;2023-05-10T11:29:06;19.60;99.90
64654;DHT22;51065;48.884;12.598;2023-05-10T11:31:32;19.30;99.90
64654;DHT22;51065;48.884;12.598;2023-05-10T11:33:59;18.80;99.90
64654;DHT22;51065;48.884;12.598;2023-05-10T11:36:28;18.40;99.90
64654;DHT22;51065;48.884;12.598;2023-05-10T11:38:56;18.00;99.90
64654;DHT22;51065;48.884;12.598;2023-05-10T11:41:22;18.00;99.90
64654;DHT22;51065;48.884;12.598;2023-05-10T11:43:51;18.20;99.90
64654;DHT22;51065;48.884;12.598;2023-05-10T11:46:19;18.20;99.90
64654;DHT22;51065;48.884;12.598;2023-05-10T11:48:45;18.50;99.90
64654;DHT22;51065;48.884;12.598;2023-05-10T11:51:12;18.50;99.90
64654;DHT22;51065;48.884;12.598;2023-05-10T11:53:37;18.60;99.90
64654;DHT22;51065;48.884;12.598;2023-05-10T11:56:07;18.70;99.90
64654;DHT22;51065;48.884;12.598;2023-05-10T11:58:33;18.90;99.90
64654;DHT22;51065;48.884;12.598;2023-05-10T12:00:59;18.90;99.90
64654;DHT22;51065;48.884;12.598;2023-05-10T12:03:26;19.60;99.90
64654;DHT22;51065;48.884;12.598;2023-05-10T12:05:52;20.00;99.90
64654;DHT22;51065;48.884;12.598;2023-05-10T12:08:21;20.10;99.90
64654;DHT22;51065;48.884;12.598;2023-05-10T12:10:47;20.80;99.90
64654;DHT22;51065;48.884;12.598;2023-05-10T12:13:14;20.80;98.20
64654;DHT22;51065;48.884;12.598;2023-05-10T12:15:40;20.70;99.90
64654;DHT22;51065;48.884;12.598;2023-05-10T12:18:08;21.00;99.90
64654;DHT22;51065;48.884;12.598;2023-05-10T12:20:35;20.90;99.90
64654;DHT22;51065;48.884;12.598;2023-05-10T12:23:01;20.70;99.90
64654;DHT22;51065;48.884;12.598;2023-05-10T12:25:33;20.60;96.90
64654;DHT22;51065;48.884;12.598;2023-05-10T12:28:00;20.90;99.20
64654;DHT22;51065;48.884;12.598;2023-05-10T12:30:29;21.20;91.40
64654;DHT22;51065;48.884;12.598;2023-05-10T12:33:00;21.30;89.20
64654;DHT22;51065;48.884;12.598;2023-05-10T12:35:26;21.30;92.20
64654;DHT22;51065;48.884;12.598;2023-05-10T12:37:51;21.00;96.20
64654;DHT22;51065;48.884;12.598;2023-05-10T12:40:17;21.50;90.40
64654;DHT22;51065;48.884;12.598;2023-05-10T12:42:43;20.90;94.00
64654;DHT22;51065;48.884;12.598;2023-05-10T12:45:12;21.00;96.00
64654;DHT22;51065;48.884;12.598;2023-05-10T12:47:38;21.00;96.40
64654;DHT22;51065;48.884;12.598;2023-05-10T12:50:04;20.50;94.70
64654;DHT22;51065;48.884;12.598;2023-05-10T12:52:30;20.60;99.30
64654;DHT22;51065;48.884;12.598;2023-05-10T12:54:57;20.40;99.90
64654;DHT22;51065;48.884;12.598;2023-05-10T12:57:23;20.70;99.50
64654;DHT22;51065;48.884;12.598;2023-05-10T12:59:49;20.90;89.30
64654;DHT22;51065;48.884;12.598;2023-05-10T13:02:15;21.60;91.00
64654;DHT22;51065;48.884;12.598;2023-05-10T13:04:43;21.60;90.80
64654;DHT22;51065;48.884;12.598;2023-05-10T13:07:09;21.30;87.20
64654;DHT22;51065;48.884;12.598;2023-05-10T13:09:35;21.10;93.00
64654;DHT22;51065;48.884;12.598;2023-05-10T13:12:01;21.50;86.30
64654;DHT22;51065;48.884;12.598;2023-05-10T13:14:27;21.60;87.40
64654;DHT22;51065;48.884;12.598;2023-05-10T13:16:52;21.60;82.70
64654;DHT22;51065;48.884;12.598;2023-05-10T13:19:19;21.10;92.10
64654;DHT22;51065;48.884;12.598;2023-05-10T13:21:45;21.00;93.70
64654;DHT22;51065;48.884;12.598;2023-05-10T13:24:11;20.50;92.10
64654;DHT22;51065;48.884;12.598;2023-05-10T13:26:39;20.90;96.50
64654;DHT22;51065;48.884;12.598;2023-05-10T13:29:05;21.00;95.90
64654;DHT22;51065;48.884;12.598;2023-05-10T13:31:30;21.10;86.80
64654;DHT22;51065;48.884;12.598;2023-05-10T13:33:56;20.80;89.20
64654;DHT22;51065;48.884;12.598;2023-05-10T13:36:22;21.00;95.40
64654;DHT22;51065;48.884;12.598;2023-05-10T13:38:48;20.50;93.00
64654;DHT22;51065;48.884;12.598;2023-05-10T13:41:13;20.60;99.80
64654;DHT22;51065;48.884;12.598;2023-05-10T13:43:39;20.30;96.00
64654;DHT22;51065;48.884;12.598;2023-05-10T13:46:05;20.00;96.10
64654;DHT22;51065;48.884;12.598;2023-05-10T13:48:32;19.70;99.90
64654;DHT22;51065;48.884;12.598;2023-05-10T13:50:57;19.40;99.10
64654;DHT22;51065;48.884;12.598;2023-05-10T13:53:23;19.60;94.80
64654;DHT22;51065;48.884;12.598;2023-05-10T13:55:49;19.40;99.40
64654;DHT22;51065;48.884;12.598;2023-05-10T13:58:14;19.00;99.90
64654;DHT22;51065;48.884;12.598;2023-05-10T14:00:40;18.70;98.50
64654;DHT22;51065;48.884;12.598;2023-05-10T14:03:05;18.40;99.90
64654;DHT22;51065;48.884;12.598;2023-05-10T14:05:32;18.00;99.90
64654;DHT22;51065;48.884;12.598;2023-05-10T14:07:57;17.80;99.90
64654;DHT22;51065;48.884;12.598;2023-05-10T14:10:23;17.60;99.90
64654;DHT22;51065;48.884;12.598;2023-05-10T14:12:50;17.50;99.90
64654;DHT22;51065;48.884;12.598;2023-05-10T14:15:15;17.60;99.90
64654;DHT22;51065;48.884;12.598;2023-05-10T14:17:41;17.40;99.90
64654;DHT22;51065;48.884;12.598;2023-05-10T14:20:07;17.40;99.90
64654;DHT22;51065;48.884;12.598;2023-05-10T14:22:34;17.30;99.90
64654;DHT22;51065;48.884;12.598;2023-05-10T14:24:59;17.10;99.90
64654;DHT22;51065;48.884;12.598;2023-05-10T14:27:25;16.90;99.90
64654;DHT22;51065;48.884;12.598;2023-05-10T14:29:51;16.80;99.90
64654;DHT22;51065;48.884;12.598;2023-05-10T14:32:16;16.60;99.90
64654;DHT22;51065;48.884;12.598;2023-05-10T14:34:42;16.50;99.90
64654;DHT22;51065;48.884;12.598;2023-05-10T14:37:10;16.30;99.90
64654;DHT22;51065;48.884;12.598;2023-05-10T14:39:39;16.20;99.90
64654;DHT22;51065;48.884;12.598;2023-05-10T14:42:04;15.90;99.90
64654;DHT22;51065;48.884;12.598;2023-05-10T14:44:30;15.50;99.90
64654;DHT22;51065;48.884;12.598;2023-05-10T14:46:55;15.10;99.90
64654;DHT22;51065;48.884;12.598;2023-05-10T14:49:43;14.70;99.90
64654;DHT22;51065;48.884;12.598;2023-05-10T14:52:41;14.50;99.90
64654;DHT22;51065;48.884;12.598;2023-05-10T14:55:33;14.10;99.90
64654;DHT22;51065;48.884;12.598;2023-05-10T14:58:03;13.80;99.90
64654;DHT22;51065;48.884;12.598;2023-05-10T15:00:59;13.70;99.90
64654;DHT22;51065;48.884;12.598;2023-05-10T15:03:46;13.50;99.90
64654;DHT22;51065;48.884;12.598;2023-05-10T15:06:15;13.40;99.90
64654;DHT22;51065;48.884;12.598;2023-05-10T15:08:46;13.40;99.90
64654;DHT22;51065;48.884;12.598;2023-05-10T15:11:11;13.20;99.90
64654;DHT22;51065;48.884;12.598;2023-05-10T15:13:37;13.30;99.90
64654;DHT22;51065;48.884;12.598;2023-05-10T15:16:02;13.20;99.90
64654;DHT22;51065;48.884;12.598;2023-05-10T15:18:28;13.20;99.90
64654;DHT22;51065;48.884;12.598;2023-05-10T15:20:53;13.20;99.90
64654;DHT22;51065;48.884;12.598;2023-05-10T15:23:20;13.20;99.90
64654;DHT22;51065;48.884;12.598;2023-05-10T15:25:45;13.20;99.90
64654;DHT22;51065;48.884;12.598;2023-05-10T15:28:11;13.20;99.90
64654;DHT22;51065;48.884;12.598;2023-05-10T15:30:37;13.10;99.90
64654;DHT22;51065;48.884;12.598;2023-05-10T15:33:02;13.10;99.90
64654;DHT22;51065;48.884;12.598;2023-05-10T15:35:28;13.10;99.90
64654;DHT22;51065;48.884;12.598;2023-05-10T15:37:54;13.10;99.90